sensor_id;sensor_type;location;lat;lon;timestamp;P1;durP1;ratioP1;P2;durP2;ratioP2
4748;SDS011;2388;53.582;9.962;2024-03-02T00:02:00;17.33;;;12.03;;
4748;SDS011;2388;53.582;9.962;2024-03-02T00:04:26;17.23;;;12.20;;
4748;SDS011;2388;53.582;9.962;2024-03-02T00:06:52;20.10;;;12.70;;
4748;SDS011;2388;53.582;9.962;2024-03-02T00:09:21;18.63;;;12.73;;
4748;SDS011;2388;53.582;9.962;2024-03-02T00:11:46;19.00;;;12.00;;
4748;SDS011;2388;53.582;9.962;2024-03-02T00:14:12;15.13;;;11.20;;
4748;SDS011;2388;53.582;9.962;2024-03-02T00:16:37;21.73;;;12.33;;
4748;SDS011;2388;53.582;9.962;2024-03-02T00:19:03;20.33;;;12.43;;
4748;SDS011;2388;53.582;9.962;2024-03-02T00:21:31;17.57;;;12.00;;
4748;SDS011;2388;53.582;9.962;2024-03-02T00:23:57;14.43;;;11.20;;
4748;SDS011;2388;53.582;9.962;2024-03-02T00:26:23;18.90;;;11.83;;
4748;SDS011;2388;53.582;9.962;2024-03-02T00:28:48;16.53;;;11.80;;
4748;SDS011;2388;53.582;9.962;2024-03-02T00:31:15;14.47;;;10.87;;
4748;SDS011;2388;53.582;9.962;2024-03-02T00:33:45;18.90;;;12.20;;
4748;SDS011;2388;53.582;9.962;2024-03-02T00:36:12;15.00;;;10.57;;
4748;SDS011;2388;53.582;9.962;2024-03-02T00:38:47;18.70;;;11.67;;
4748;SDS011;2388;53.582;9.962;2024-03-02T00:41:21;18.87;;;11.93;;
4748;SDS011;2388;53.582;9.962;2024-03-02T00:44:01;19.10;;;12.07;;
4748;SDS011;2388;53.582;9.962;2024-03-02T00:46:38;19.40;;;12.40;;
4748;SDS011;2388;53.582;9.962;2024-03-02T00:49:25;19.63;;;12.63;;
4748;SDS011;2388;53.582;9.962;2024-03-02T00:51:52;16.50;;;12.40;;
4748;SDS011;2388;53.582;9.962;2024-03-02T00:54:19;21.40;;;13.07;;
4748;SDS011;2388;53.582;9.962;2024-03-02T00:56:46;18.47;;;12.83;;
4748;SDS011;2388;53.582;9.962;2024-03-02T00:59:12;22.80;;;13.27;;
4748;SDS011;2388;53.582;9.962;2024-03-02T01:01:38;20.73;;;14.60;;
4748;SDS011;2388;53.582;9.962;2024-03-02T01:04:03;21.80;;;14.20;;
4748;SDS011;2388;53.582;9.962;2024-03-02T01:06:30;19.40;;;12.53;;
4748;SDS011;2388;53.582;9.962;2024-03-02T01:08:55;19.87;;;12.83;;
4748;SDS011;2388;53.582;9.962;2024-03-02T01:11:21;20.60;;;13.87;;
4748;SDS011;2388;53.582;9.962;2024-03-02T01:13:47;20.27;;;14.20;;
4748;SDS011;2388;53.582;9.962;2024-03-02T01:16:13;22.97;;;14.50;;
4748;SDS011;2388;53.582;9.962;2024-03-02T01:18:38;22.03;;;15.40;;
4748;SDS011;2388;53.582;9.962;2024-03-02T01:21:04;24.03;;;16.00;;
4748;SDS011;2388;53.582;9.962;2024-03-02T01:23:29;26.20;;;15.97;;
4748;SDS011;2388;53.582;9.962;2024-03-02T01:25:55;27.23;;;16.37;;
4748;SDS011;2388;53.582;9.962;2024-03-02T01:28:20;28.50;;;17.37;;
4748;SDS011;2388;53.582;9.962;2024-03-02T01:30:46;36.73;;;18.37;;
4748;SDS011;2388;53.582;9.962;2024-03-02T01:33:12;32.77;;;18.37;;
4748;SDS011;2388;53.582;9.962;2024-03-02T01:35:38;28.37;;;18.10;;
4748;SDS011;2388;53.582;9.962;2024-03-02T01:38:03;27.90;;;17.57;;
4748;SDS011;2388;53.582;9.962;2024-03-02T01:40:31;27.67;;;17.03;;
4748;SDS011;2388;53.582;9.962;2024-03-02T01:42:57;30.43;;;17.87;;
4748;SDS011;2388;53.582;9.962;2024-03-02T01:45:25;34.30;;;19.93;;
4748;SDS011;2388;53.582;9.962;2024-03-02T01:47:51;29.10;;;18.57;;
4748;SDS011;2388;53.582;9.962;2024-03-02T01:50:24;32.73;;;18.83;;
4748;SDS011;2388;53.582;9.962;2024-03-02T01:52:54;31.13;;;18.40;;
4748;SDS011;2388;53.582;9.962;2024-03-02T01:55:20;34.27;;;19.63;;
4748;SDS011;2388;53.582;9.962;2024-03-02T01:57:46;34.67;;;19.90;;
4748;SDS011;2388;53.582;9.962;2024-03-02T02:00:13;35.30;;;18.70;;
4748;SDS011;2388;53.582;9.962;2024-03-02T02:02:38;29.50;;;19.13;;
4748;SDS011;2388;53.582;9.962;2024-03-02T02:05:04;33.10;;;19.43;;
4748;SDS011;2388;53.582;9.962;2024-03-02T02:07:30;31.10;;;18.17;;
4748;SDS011;2388;53.582;9.962;2024-03-02T02:09:56;28.80;;;18.40;;
4748;SDS011;2388;53.582;9.962;2024-03-02T02:12:22;34.77;;;19.07;;
4748;SDS011;2388;53.582;9.962;2024-03-02T02:14:47;34.87;;;19.63;;
4748;SDS011;2388;53.582;9.962;2024-03-02T02:17:14;32.63;;;19.73;;
4748;SDS011;2388;53.582;9.962;2024-03-02T02:19:40;34.73;;;20.00;;
4748;SDS011;2388;53.582;9.962;2024-03-02T02:22:06;36.00;;;20.13;;
4748;SDS011;2388;53.582;9.962;2024-03-02T02:24:31;29.37;;;18.33;;
4748;SDS011;2388;53.582;9.962;2024-03-02T02:26:57;29.57;;;18.40;;
4748;SDS011;2388;53.582;9.962;2024-03-02T02:29:22;36.13;;;20.30;;
4748;SDS011;2388;53.582;9.962;2024-03-02T02:31:48;29.60;;;18.70;;
4748;SDS011;2388;53.582;9.962;2024-03-02T02:34:14;32.07;;;20.13;;
4748;SDS011;2388;53.582;9.962;2024-03-02T02:36:39;32.00;;;19.03;;
4748;SDS011;2388;53.582;9.962;2024-03-02T02:39:05;38.43;;;19.10;;
4748;SDS011;2388;53.582;9.962;2024-03-02T02:41:35;31.93;;;19.70;;
4748;SDS011;2388;53.582;9.962;2024-03-02T02:44:01;39.27;;;19.33;;
4748;SDS011;2388;53.582;9.962;2024-03-02T02:46:26;37.93;;;20.27;;
4748;SDS011;2388;53.582;9.962;2024-03-02T02:48:52;32.50;;;19.10;;
4748;SDS011;2388;53.582;9.962;2024-03-02T02:51:18;30.60;;;18.43;;
4748;SDS011;2388;53.582;9.962;2024-03-02T02:53:44;39.47;;;21.20;;
4748;SDS011;2388;53.582;9.962;2024-03-02T02:56:09;31.40;;;18.50;;
4748;SDS011;2388;53.582;9.962;2024-03-02T02:58:35;32.40;;;20.50;;
4748;SDS011;2388;53.582;9.962;2024-03-02T03:01:01;36.27;;;20.60;;
4748;SDS011;2388;53.582;9.962;2024-03-02T03:03:26;33.43;;;19.03;;
4748;SDS011;2388;53.582;9.962;2024-03-02T03:05:52;31.63;;;19.10;;
4748;SDS011;2388;53.582;9.962;2024-03-02T03:08:17;30.33;;;18.60;;
4748;SDS011;2388;53.582;9.962;2024-03-02T03:10:43;33.43;;;19.47;;
4748;SDS011;2388;53.582;9.962;2024-03-02T03:13:09;30.20;;;17.67;;
4748;SDS011;2388;53.582;9.962;2024-03-02T03:15:35;31.70;;;19.67;;
4748;SDS011;2388;53.582;9.962;2024-03-02T03:18:04;31.70;;;19.07;;
4748;SDS011;2388;53.582;9.962;2024-03-02T03:20:29;32.30;;;19.20;;
4748;SDS011;2388;53.582;9.962;2024-03-02T03:22:56;36.13;;;19.27;;
4748;SDS011;2388;53.582;9.962;2024-03-02T03:25:22;30.53;;;18.23;;
4748;SDS011;2388;53.582;9.962;2024-03-02T03:27:47;35.00;;;19.00;;
4748;SDS011;2388;53.582;9.962;2024-03-02T03:30:13;29.00;;;17.40;;
4748;SDS011;2388;53.582;9.962;2024-03-02T03:32:39;31.07;;;19.87;;
4748;SDS011;2388;53.582;9.962;2024-03-02T03:35:05;28.37;;;19.00;;
4748;SDS011;2388;53.582;9.962;2024-03-02T03:37:31;29.60;;;17.50;;
4748;SDS011;2388;53.582;9.962;2024-03-02T03:39:58;29.97;;;18.13;;
4748;SDS011;2388;53.582;9.962;2024-03-02T03:42:24;30.77;;;18.80;;
4748;SDS011;2388;53.582;9.962;2024-03-02T03:44:49;32.17;;;18.87;;
4748;SDS011;2388;53.582;9.962;2024-03-02T03:47:15;34.33;;;18.30;;
4748;SDS011;2388;53.582;9.962;2024-03-02T03:49:40;31.60;;;19.27;;
4748;SDS011;2388;53.582;9.962;2024-03-02T03:52:06;31.63;;;18.93;;
4748;SDS011;2388;53.582;9.962;2024-03-02T03:54:31;34.30;;;19.10;;
4748;SDS011;2388;53.582;9.962;2024-03-02T03:56:57;32.33;;;18.70;;
4748;SDS011;2388;53.582;9.962;2024-03-02T03:59:22;32.47;;;18.80;;
4748;SDS011;2388;53.582;9.962;2024-03-02T04:01:48;31.00;;;18.57;;
4748;SDS011;2388;53.582;9.962;2024-03-02T04:04:14;31.37;;;19.53;;
4748;SDS011;2388;53.582;9.962;2024-03-02T04:06:39;28.40;;;17.80;;
4748;SDS011;2388;53.582;9.962;2024-03-02T04:09:05;33.07;;;19.40;;
4748;SDS011;2388;53.582;9.962;2024-03-02T04:11:31;34.93;;;19.57;;
4748;SDS011;2388;53.582;9.962;2024-03-02T04:13:56;37.10;;;19.67;;
4748;SDS011;2388;53.582;9.962;2024-03-02T04:16:22;27.57;;;17.33;;
4748;SDS011;2388;53.582;9.962;2024-03-02T04:18:47;33.77;;;18.53;;
4748;SDS011;2388;53.582;9.962;2024-03-02T04:21:13;31.43;;;19.40;;
4748;SDS011;2388;53.582;9.962;2024-03-02T04:23:38;29.40;;;18.03;;
4748;SDS011;2388;53.582;9.962;2024-03-02T04:26:04;31.10;;;18.17;;
4748;SDS011;2388;53.582;9.962;2024-03-02T04:28:29;28.53;;;17.70;;
4748;SDS011;2388;53.582;9.962;2024-03-02T04:30:55;29.93;;;18.60;;
4748;SDS011;2388;53.582;9.962;2024-03-02T04:33:20;33.73;;;17.97;;
4748;SDS011;2388;53.582;9.962;2024-03-02T04:35:46;30.03;;;18.67;;
4748;SDS011;2388;53.582;9.962;2024-03-02T04:38:11;30.17;;;18.60;;
4748;SDS011;2388;53.582;9.962;2024-03-02T04:40:37;29.23;;;18.37;;
4748;SDS011;2388;53.582;9.962;2024-03-02T04:43:02;30.30;;;18.73;;
4748;SDS011;2388;53.582;9.962;2024-03-02T04:45:28;33.00;;;18.43;;
4748;SDS011;2388;53.582;9.962;2024-03-02T04:47:54;28.10;;;17.50;;
4748;SDS011;2388;53.582;9.962;2024-03-02T04:50:19;28.33;;;17.10;;
4748;SDS011;2388;53.582;9.962;2024-03-02T04:52:45;31.57;;;18.00;;
4748;SDS011;2388;53.582;9.962;2024-03-02T04:55:10;26.80;;;17.93;;
4748;SDS011;2388;53.582;9.962;2024-03-02T04:58:00;28.43;;;16.87;;
4748;SDS011;2388;53.582;9.962;2024-03-02T05:00:25;25.77;;;17.03;;
4748;SDS011;2388;53.582;9.962;2024-03-02T05:02:51;30.63;;;17.67;;
4748;SDS011;2388;53.582;9.962;2024-03-02T05:05:16;32.37;;;19.03;;
4748;SDS011;2388;53.582;9.962;2024-03-02T05:07:42;27.40;;;17.67;;
4748;SDS011;2388;53.582;9.962;2024-03-02T05:10:09;30.63;;;18.10;;
4748;SDS011;2388;53.582;9.962;2024-03-02T05:12:34;28.87;;;17.80;;
4748;SDS011;2388;53.582;9.962;2024-03-02T05:15:20;30.80;;;17.07;;
4748;SDS011;2388;53.582;9.962;2024-03-02T05:17:46;33.80;;;18.07;;
4748;SDS011;2388;53.582;9.962;2024-03-02T05:20:12;28.97;;;18.13;;
4748;SDS011;2388;53.582;9.962;2024-03-02T05:22:37;28.70;;;17.23;;
4748;SDS011;2388;53.582;9.962;2024-03-02T05:25:04;28.73;;;17.03;;
4748;SDS011;2388;53.582;9.962;2024-03-02T05:27:30;31.73;;;16.00;;
4748;SDS011;2388;53.582;9.962;2024-03-02T05:29:57;32.03;;;18.07;;
4748;SDS011;2388;53.582;9.962;2024-03-02T05:32:23;28.93;;;17.43;;
4748;SDS011;2388;53.582;9.962;2024-03-02T05:34:48;30.13;;;18.37;;
4748;SDS011;2388;53.582;9.962;2024-03-02T05:37:15;36.10;;;18.60;;
4748;SDS011;2388;53.582;9.962;2024-03-02T05:39:41;25.87;;;16.10;;
4748;SDS011;2388;53.582;9.962;2024-03-02T05:42:08;25.97;;;17.03;;
4748;SDS011;2388;53.582;9.962;2024-03-02T05:44:34;26.37;;;16.50;;
4748;SDS011;2388;53.582;9.962;2024-03-02T05:47:00;24.10;;;16.40;;
4748;SDS011;2388;53.582;9.962;2024-03-02T05:49:25;22.80;;;15.77;;
4748;SDS011;2388;53.582;9.962;2024-03-02T05:51:50;26.47;;;17.43;;
4748;SDS011;2388;53.582;9.962;2024-03-02T05:54:16;26.80;;;16.60;;
4748;SDS011;2388;53.582;9.962;2024-03-02T05:56:41;28.13;;;16.70;;
4748;SDS011;2388;53.582;9.962;2024-03-02T05:59:07;25.50;;;15.67;;
4748;SDS011;2388;53.582;9.962;2024-03-02T06:01:39;27.47;;;17.30;;
4748;SDS011;2388;53.582;9.962;2024-03-02T06:04:05;28.03;;;19.47;;
4748;SDS011;2388;53.582;9.962;2024-03-02T06:06:31;33.57;;;22.37;;
4748;SDS011;2388;53.582;9.962;2024-03-02T06:08:59;28.70;;;18.30;;
4748;SDS011;2388;53.582;9.962;2024-03-02T06:11:25;34.60;;;22.13;;
4748;SDS011;2388;53.582;9.962;2024-03-02T06:13:50;30.83;;;20.10;;
4748;SDS011;2388;53.582;9.962;2024-03-02T06:16:15;29.63;;;18.70;;
4748;SDS011;2388;53.582;9.962;2024-03-02T06:18:41;28.00;;;17.80;;
4748;SDS011;2388;53.582;9.962;2024-03-02T06:21:06;25.70;;;17.20;;
4748;SDS011;2388;53.582;9.962;2024-03-02T06:23:33;26.33;;;16.93;;
4748;SDS011;2388;53.582;9.962;2024-03-02T06:25:59;32.60;;;16.63;;
4748;SDS011;2388;53.582;9.962;2024-03-02T06:28:25;21.33;;;14.77;;
4748;SDS011;2388;53.582;9.962;2024-03-02T06:30:51;22.27;;;15.10;;
4748;SDS011;2388;53.582;9.962;2024-03-02T06:33:16;27.70;;;16.50;;
4748;SDS011;2388;53.582;9.962;2024-03-02T06:35:41;23.80;;;15.03;;
4748;SDS011;2388;53.582;9.962;2024-03-02T06:38:07;21.83;;;16.63;;
4748;SDS011;2388;53.582;9.962;2024-03-02T06:40:32;23.23;;;16.00;;
4748;SDS011;2388;53.582;9.962;2024-03-02T06:42:59;23.90;;;16.20;;
4748;SDS011;2388;53.582;9.962;2024-03-02T06:45:24;27.47;;;16.67;;
4748;SDS011;2388;53.582;9.962;2024-03-02T06:47:50;25.67;;;16.20;;
4748;SDS011;2388;53.582;9.962;2024-03-02T06:50:15;26.97;;;16.60;;
4748;SDS011;2388;53.582;9.962;2024-03-02T06:52:40;25.73;;;16.10;;
4748;SDS011;2388;53.582;9.962;2024-03-02T06:55:07;26.40;;;15.90;;
4748;SDS011;2388;53.582;9.962;2024-03-02T06:57:32;26.40;;;16.20;;
4748;SDS011;2388;53.582;9.962;2024-03-02T06:59:58;23.47;;;14.83;;
4748;SDS011;2388;53.582;9.962;2024-03-02T07:02:26;26.23;;;16.40;;
4748;SDS011;2388;53.582;9.962;2024-03-02T07:04:52;22.30;;;15.07;;
4748;SDS011;2388;53.582;9.962;2024-03-02T07:07:18;24.27;;;15.47;;
4748;SDS011;2388;53.582;9.962;2024-03-02T07:09:43;26.53;;;15.57;;
4748;SDS011;2388;53.582;9.962;2024-03-02T07:12:09;22.23;;;14.80;;
4748;SDS011;2388;53.582;9.962;2024-03-02T07:14:35;25.07;;;15.87;;
4748;SDS011;2388;53.582;9.962;2024-03-02T07:17:18;22.30;;;15.40;;
4748;SDS011;2388;53.582;9.962;2024-03-02T07:19:44;23.60;;;16.13;;
4748;SDS011;2388;53.582;9.962;2024-03-02T07:22:09;24.70;;;15.90;;
4748;SDS011;2388;53.582;9.962;2024-03-02T07:24:39;25.60;;;16.53;;
4748;SDS011;2388;53.582;9.962;2024-03-02T07:27:08;23.73;;;15.17;;
4748;SDS011;2388;53.582;9.962;2024-03-02T07:29:34;24.97;;;15.27;;
4748;SDS011;2388;53.582;9.962;2024-03-02T07:32:00;24.43;;;16.00;;
4748;SDS011;2388;53.582;9.962;2024-03-02T07:34:25;23.33;;;15.80;;
4748;SDS011;2388;53.582;9.962;2024-03-02T07:36:51;24.60;;;15.60;;
4748;SDS011;2388;53.582;9.962;2024-03-02T07:39:17;23.43;;;15.63;;
4748;SDS011;2388;53.582;9.962;2024-03-02T07:41:42;22.13;;;15.23;;
4748;SDS011;2388;53.582;9.962;2024-03-02T07:44:08;30.43;;;16.10;;
4748;SDS011;2388;53.582;9.962;2024-03-02T07:46:34;23.50;;;14.93;;
4748;SDS011;2388;53.582;9.962;2024-03-02T07:48:59;21.87;;;15.23;;
4748;SDS011;2388;53.582;9.962;2024-03-02T07:51:25;23.57;;;15.33;;
4748;SDS011;2388;53.582;9.962;2024-03-02T07:53:51;24.00;;;14.60;;
4748;SDS011;2388;53.582;9.962;2024-03-02T07:56:16;26.63;;;15.50;;
4748;SDS011;2388;53.582;9.962;2024-03-02T07:58:47;23.00;;;15.93;;
4748;SDS011;2388;53.582;9.962;2024-03-02T08:01:14;23.77;;;16.20;;
4748;SDS011;2388;53.582;9.962;2024-03-02T08:03:39;31.50;;;14.70;;
4748;SDS011;2388;53.582;9.962;2024-03-02T08:06:05;26.23;;;16.57;;
4748;SDS011;2388;53.582;9.962;2024-03-02T08:08:31;24.00;;;15.47;;
4748;SDS011;2388;53.582;9.962;2024-03-02T08:10:56;34.03;;;20.50;;
4748;SDS011;2388;53.582;9.962;2024-03-02T08:13:22;25.50;;;16.40;;
4748;SDS011;2388;53.582;9.962;2024-03-02T08:15:47;23.50;;;15.50;;
4748;SDS011;2388;53.582;9.962;2024-03-02T08:18:13;25.37;;;15.70;;
4748;SDS011;2388;53.582;9.962;2024-03-02T08:20:39;22.13;;;15.27;;
4748;SDS011;2388;53.582;9.962;2024-03-02T08:23:05;26.10;;;16.70;;
4748;SDS011;2388;53.582;9.962;2024-03-02T08:25:31;27.37;;;15.20;;
4748;SDS011;2388;53.582;9.962;2024-03-02T08:27:57;24.23;;;15.83;;
4748;SDS011;2388;53.582;9.962;2024-03-02T08:30:23;27.63;;;15.47;;
4748;SDS011;2388;53.582;9.962;2024-03-02T08:32:48;22.03;;;15.50;;
4748;SDS011;2388;53.582;9.962;2024-03-02T08:35:14;23.03;;;15.33;;
4748;SDS011;2388;53.582;9.962;2024-03-02T08:37:40;27.67;;;15.60;;
4748;SDS011;2388;53.582;9.962;2024-03-02T08:40:07;23.30;;;15.33;;
4748;SDS011;2388;53.582;9.962;2024-03-02T08:42:34;22.87;;;15.40;;
4748;SDS011;2388;53.582;9.962;2024-03-02T08:45:00;24.27;;;15.90;;
4748;SDS011;2388;53.582;9.962;2024-03-02T08:47:28;25.90;;;16.40;;
4748;SDS011;2388;53.582;9.962;2024-03-02T08:49:54;28.40;;;16.20;;
4748;SDS011;2388;53.582;9.962;2024-03-02T08:52:19;25.67;;;16.10;;
4748;SDS011;2388;53.582;9.962;2024-03-02T08:54:45;23.40;;;15.40;;
4748;SDS011;2388;53.582;9.962;2024-03-02T08:57:10;22.83;;;14.63;;
4748;SDS011;2388;53.582;9.962;2024-03-02T08:59:36;25.37;;;17.83;;
4748;SDS011;2388;53.582;9.962;2024-03-02T09:02:01;24.97;;;17.17;;
4748;SDS011;2388;53.582;9.962;2024-03-02T09:04:27;24.50;;;15.80;;
4748;SDS011;2388;53.582;9.962;2024-03-02T09:06:54;23.80;;;15.67;;
4748;SDS011;2388;53.582;9.962;2024-03-02T09:09:20;25.43;;;15.27;;
4748;SDS011;2388;53.582;9.962;2024-03-02T09:11:46;24.67;;;15.20;;
4748;SDS011;2388;53.582;9.962;2024-03-02T09:14:11;23.27;;;15.17;;
4748;SDS011;2388;53.582;9.962;2024-03-02T09:16:37;22.50;;;15.00;;
4748;SDS011;2388;53.582;9.962;2024-03-02T09:19:03;33.43;;;20.30;;
4748;SDS011;2388;53.582;9.962;2024-03-02T09:21:28;34.13;;;22.00;;
4748;SDS011;2388;53.582;9.962;2024-03-02T09:23:55;39.93;;;20.00;;
4748;SDS011;2388;53.582;9.962;2024-03-02T09:26:21;21.87;;;15.10;;
4748;SDS011;2388;53.582;9.962;2024-03-02T09:28:49;23.83;;;14.70;;
4748;SDS011;2388;53.582;9.962;2024-03-02T09:31:15;18.57;;;13.23;;
4748;SDS011;2388;53.582;9.962;2024-03-02T09:33:41;21.40;;;14.27;;
4748;SDS011;2388;53.582;9.962;2024-03-02T09:36:16;21.57;;;13.73;;
4748;SDS011;2388;53.582;9.962;2024-03-02T09:38:42;26.60;;;13.60;;
4748;SDS011;2388;53.582;9.962;2024-03-02T09:41:08;20.57;;;14.30;;
4748;SDS011;2388;53.582;9.962;2024-03-02T09:43:33;20.83;;;13.17;;
4748;SDS011;2388;53.582;9.962;2024-03-02T09:45:59;17.33;;;12.87;;
4748;SDS011;2388;53.582;9.962;2024-03-02T09:48:25;18.80;;;13.40;;
4748;SDS011;2388;53.582;9.962;2024-03-02T09:50:50;25.30;;;12.40;;
4748;SDS011;2388;53.582;9.962;2024-03-02T09:53:16;20.70;;;13.20;;
4748;SDS011;2388;53.582;9.962;2024-03-02T09:55:45;20.70;;;14.10;;
4748;SDS011;2388;53.582;9.962;2024-03-02T09:58:12;19.03;;;13.47;;
4748;SDS011;2388;53.582;9.962;2024-03-02T10:00:37;25.53;;;14.37;;
4748;SDS011;2388;53.582;9.962;2024-03-02T10:03:03;22.17;;;13.60;;
4748;SDS011;2388;53.582;9.962;2024-03-02T10:05:30;17.13;;;13.53;;
4748;SDS011;2388;53.582;9.962;2024-03-02T10:07:58;23.90;;;14.60;;
4748;SDS011;2388;53.582;9.962;2024-03-02T10:10:34;18.27;;;13.60;;
4748;SDS011;2388;53.582;9.962;2024-03-02T10:13:08;19.13;;;13.27;;
4748;SDS011;2388;53.582;9.962;2024-03-02T10:15:37;19.30;;;13.43;;
4748;SDS011;2388;53.582;9.962;2024-03-02T10:18:03;16.60;;;12.00;;
4748;SDS011;2388;53.582;9.962;2024-03-02T10:20:29;18.80;;;12.67;;
4748;SDS011;2388;53.582;9.962;2024-03-02T10:23:09;20.80;;;12.30;;
4748;SDS011;2388;53.582;9.962;2024-03-02T10:25:36;18.70;;;10.83;;
4748;SDS011;2388;53.582;9.962;2024-03-02T10:28:01;16.17;;;10.50;;
4748;SDS011;2388;53.582;9.962;2024-03-02T10:30:27;19.90;;;11.90;;
4748;SDS011;2388;53.582;9.962;2024-03-02T10:32:55;23.77;;;11.40;;
4748;SDS011;2388;53.582;9.962;2024-03-02T10:35:21;15.57;;;11.23;;
4748;SDS011;2388;53.582;9.962;2024-03-02T10:37:48;16.90;;;11.43;;
4748;SDS011;2388;53.582;9.962;2024-03-02T10:40:14;18.93;;;11.50;;
4748;SDS011;2388;53.582;9.962;2024-03-02T10:42:41;20.93;;;10.87;;
4748;SDS011;2388;53.582;9.962;2024-03-02T10:45:07;18.10;;;11.30;;
4748;SDS011;2388;53.582;9.962;2024-03-02T10:47:35;17.80;;;11.40;;
4748;SDS011;2388;53.582;9.962;2024-03-02T10:50:02;14.67;;;11.40;;
4748;SDS011;2388;53.582;9.962;2024-03-02T10:52:36;15.33;;;11.70;;
4748;SDS011;2388;53.582;9.962;2024-03-02T10:55:02;19.53;;;10.47;;
4748;SDS011;2388;53.582;9.962;2024-03-02T10:57:33;12.97;;;10.00;;
4748;SDS011;2388;53.582;9.962;2024-03-02T11:00:06;19.77;;;10.70;;
4748;SDS011;2388;53.582;9.962;2024-03-02T11:02:39;27.27;;;16.90;;
4748;SDS011;2388;53.582;9.962;2024-03-02T11:05:07;24.30;;;16.80;;
4748;SDS011;2388;53.582;9.962;2024-03-02T11:07:35;15.57;;;11.20;;
4748;SDS011;2388;53.582;9.962;2024-03-02T11:10:03;14.60;;;10.33;;
4748;SDS011;2388;53.582;9.962;2024-03-02T11:12:38;13.60;;;10.20;;
4748;SDS011;2388;53.582;9.962;2024-03-02T11:15:11;12.13;;;9.30;;
4748;SDS011;2388;53.582;9.962;2024-03-02T11:17:44;13.30;;;9.43;;
4748;SDS011;2388;53.582;9.962;2024-03-02T11:20:10;14.47;;;11.03;;
4748;SDS011;2388;53.582;9.962;2024-03-02T11:22:36;12.27;;;9.33;;
4748;SDS011;2388;53.582;9.962;2024-03-02T11:25:02;12.57;;;8.20;;
4748;SDS011;2388;53.582;9.962;2024-03-02T11:27:58;9.33;;;8.33;;
4748;SDS011;2388;53.582;9.962;2024-03-02T11:38:01;15.67;;;8.27;;
4748;SDS011;2388;53.582;9.962;2024-03-02T11:40:28;11.80;;;8.20;;
4748;SDS011;2388;53.582;9.962;2024-03-02T11:42:54;9.30;;;7.57;;
4748;SDS011;2388;53.582;9.962;2024-03-02T11:45:23;9.10;;;7.90;;
4748;SDS011;2388;53.582;9.962;2024-03-02T11:47:50;10.10;;;7.63;;
4748;SDS011;2388;53.582;9.962;2024-03-02T11:50:36;11.10;;;7.93;;
4748;SDS011;2388;53.582;9.962;2024-03-02T11:53:06;8.93;;;7.10;;
4748;SDS011;2388;53.582;9.962;2024-03-02T11:55:34;10.80;;;7.40;;
4748;SDS011;2388;53.582;9.962;2024-03-02T11:58:01;11.10;;;7.30;;
4748;SDS011;2388;53.582;9.962;2024-03-02T12:00:28;7.03;;;6.33;;
4748;SDS011;2388;53.582;9.962;2024-03-02T12:03:00;13.77;;;6.87;;
4748;SDS011;2388;53.582;9.962;2024-03-02T12:05:30;11.50;;;6.70;;
4748;SDS011;2388;53.582;9.962;2024-03-02T12:07:59;10.73;;;8.13;;
4748;SDS011;2388;53.582;9.962;2024-03-02T12:10:29;10.97;;;6.50;;
4748;SDS011;2388;53.582;9.962;2024-03-02T12:12:59;7.90;;;6.27;;
4748;SDS011;2388;53.582;9.962;2024-03-02T12:15:26;10.17;;;7.07;;
4748;SDS011;2388;53.582;9.962;2024-03-02T12:17:56;7.00;;;6.30;;
4748;SDS011;2388;53.582;9.962;2024-03-02T12:20:23;9.53;;;6.60;;
4748;SDS011;2388;53.582;9.962;2024-03-02T12:22:50;6.90;;;6.20;;
4748;SDS011;2388;53.582;9.962;2024-03-02T12:25:17;10.60;;;6.67;;
4748;SDS011;2388;53.582;9.962;2024-03-02T12:27:44;7.10;;;6.30;;
4748;SDS011;2388;53.582;9.962;2024-03-02T12:30:11;7.30;;;5.90;;
4748;SDS011;2388;53.582;9.962;2024-03-02T12:32:38;8.23;;;6.23;;
4748;SDS011;2388;53.582;9.962;2024-03-02T12:35:05;6.43;;;5.83;;
4748;SDS011;2388;53.582;9.962;2024-03-02T12:37:30;10.87;;;6.90;;
4748;SDS011;2388;53.582;9.962;2024-03-02T12:39:56;8.67;;;5.60;;
4748;SDS011;2388;53.582;9.962;2024-03-02T12:42:23;6.70;;;5.50;;
4748;SDS011;2388;53.582;9.962;2024-03-02T12:44:49;6.60;;;5.60;;
4748;SDS011;2388;53.582;9.962;2024-03-02T12:47:19;9.80;;;6.07;;
4748;SDS011;2388;53.582;9.962;2024-03-02T12:49:44;10.00;;;6.50;;
4748;SDS011;2388;53.582;9.962;2024-03-02T12:52:11;7.03;;;6.00;;
4748;SDS011;2388;53.582;9.962;2024-03-02T12:54:38;5.40;;;4.90;;
4748;SDS011;2388;53.582;9.962;2024-03-02T12:57:03;8.87;;;6.70;;
4748;SDS011;2388;53.582;9.962;2024-03-02T12:59:29;7.07;;;6.20;;
4748;SDS011;2388;53.582;9.962;2024-03-02T13:01:56;8.30;;;5.77;;
4748;SDS011;2388;53.582;9.962;2024-03-02T13:04:26;8.00;;;5.50;;
4748;SDS011;2388;53.582;9.962;2024-03-02T13:06:56;9.10;;;5.93;;
4748;SDS011;2388;53.582;9.962;2024-03-02T13:09:22;9.20;;;6.20;;
4748;SDS011;2388;53.582;9.962;2024-03-02T13:11:48;5.87;;;5.20;;
4748;SDS011;2388;53.582;9.962;2024-03-02T13:14:14;10.40;;;5.33;;
4748;SDS011;2388;53.582;9.962;2024-03-02T13:16:40;6.23;;;5.20;;
4748;SDS011;2388;53.582;9.962;2024-03-02T13:19:12;8.33;;;5.87;;
4748;SDS011;2388;53.582;9.962;2024-03-02T13:21:38;11.57;;;6.43;;
4748;SDS011;2388;53.582;9.962;2024-03-02T13:24:04;7.70;;;5.83;;
4748;SDS011;2388;53.582;9.962;2024-03-02T13:26:30;6.27;;;5.63;;
4748;SDS011;2388;53.582;9.962;2024-03-02T13:28:56;7.83;;;6.50;;
4748;SDS011;2388;53.582;9.962;2024-03-02T13:31:21;8.40;;;6.27;;
4748;SDS011;2388;53.582;9.962;2024-03-02T13:33:47;8.03;;;5.80;;
4748;SDS011;2388;53.582;9.962;2024-03-02T13:36:12;5.50;;;5.07;;
4748;SDS011;2388;53.582;9.962;2024-03-02T13:38:38;8.27;;;6.03;;
4748;SDS011;2388;53.582;9.962;2024-03-02T13:41:04;9.87;;;7.17;;
4748;SDS011;2388;53.582;9.962;2024-03-02T13:43:29;10.63;;;6.63;;
4748;SDS011;2388;53.582;9.962;2024-03-02T13:45:59;7.80;;;6.20;;
4748;SDS011;2388;53.582;9.962;2024-03-02T13:48:25;13.30;;;7.07;;
4748;SDS011;2388;53.582;9.962;2024-03-02T13:50:51;7.13;;;6.43;;
4748;SDS011;2388;53.582;9.962;2024-03-02T13:53:17;6.80;;;6.10;;
4748;SDS011;2388;53.582;9.962;2024-03-02T13:55:43;7.97;;;6.00;;
4748;SDS011;2388;53.582;9.962;2024-03-02T13:58:09;9.67;;;7.17;;
4748;SDS011;2388;53.582;9.962;2024-03-02T14:00:35;10.93;;;7.67;;
4748;SDS011;2388;53.582;9.962;2024-03-02T14:03:02;9.37;;;7.50;;
4748;SDS011;2388;53.582;9.962;2024-03-02T14:05:28;9.60;;;6.70;;
4748;SDS011;2388;53.582;9.962;2024-03-02T14:07:54;9.97;;;7.40;;
4748;SDS011;2388;53.582;9.962;2024-03-02T14:10:19;7.83;;;7.00;;
4748;SDS011;2388;53.582;9.962;2024-03-02T14:12:47;12.10;;;7.87;;
4748;SDS011;2388;53.582;9.962;2024-03-02T14:15:13;10.73;;;7.20;;
4748;SDS011;2388;53.582;9.962;2024-03-02T14:17:39;13.20;;;8.87;;
4748;SDS011;2388;53.582;9.962;2024-03-02T14:20:04;10.83;;;7.53;;
4748;SDS011;2388;53.582;9.962;2024-03-02T14:22:31;13.03;;;8.43;;
4748;SDS011;2388;53.582;9.962;2024-03-02T14:24:56;14.13;;;8.93;;
4748;SDS011;2388;53.582;9.962;2024-03-02T14:27:22;9.90;;;7.83;;
4748;SDS011;2388;53.582;9.962;2024-03-02T14:29:48;11.80;;;7.70;;
4748;SDS011;2388;53.582;9.962;2024-03-02T14:32:13;9.60;;;7.80;;
4748;SDS011;2388;53.582;9.962;2024-03-02T14:34:39;11.73;;;8.13;;
4748;SDS011;2388;53.582;9.962;2024-03-02T14:37:04;14.20;;;9.20;;
4748;SDS011;2388;53.582;9.962;2024-03-02T14:39:30;13.10;;;8.97;;
4748;SDS011;2388;53.582;9.962;2024-03-02T14:41:59;11.60;;;8.63;;
4748;SDS011;2388;53.582;9.962;2024-03-02T14:44:25;9.97;;;7.10;;
4748;SDS011;2388;53.582;9.962;2024-03-02T14:46:51;16.70;;;8.57;;
4748;SDS011;2388;53.582;9.962;2024-03-02T14:49:16;8.87;;;6.90;;
4748;SDS011;2388;53.582;9.962;2024-03-02T14:51:43;8.67;;;7.10;;
4748;SDS011;2388;53.582;9.962;2024-03-02T14:54:09;10.77;;;7.20;;
4748;SDS011;2388;53.582;9.962;2024-03-02T14:56:34;13.27;;;6.63;;
4748;SDS011;2388;53.582;9.962;2024-03-02T14:59:00;8.07;;;6.60;;